Time;durP1;ratioP1;P1;durP2;ratioP2;P2;SDS_P1;SDS_P2;PMS_P1;PMS_P2;Temp;Humidity;BMP_temperature;BMP_pressure;BME280_temperature;BME280_humidity;BME280_pressure;Samples;Min_cycle;Max_cycle;Signal;HPM_P1;HPM_P2
2022/05/01 00:00:51;;;;;;;20.50;13.63;;;5.90;99.90;;;;;;5011401;28;20026;-72
2022/05/01 00:03:31;;;;;;;16.80;12.93;;;6.00;99.90;;;;;;5012454;28;20040;-73
2022/05/01 00:06:05;;;;;;;18.60;12.23;;;5.90;99.90;;;;;;5012178;28;20018;-73
2022/05/01 00:08:31;;;;;;;18.75;13.73;;;5.90;99.90;;;;;;5011735;28;20038;-72
2022/05/01 00:11:01;;;;;;;17.58;12.68;;;5.90;99.90;;;;;;5012295;28;20025;-73
2022/05/01 00:13:28;;;;;;;18.15;12.77;;;5.90;99.90;;;;;;5012345;28;20030;-73
2022/05/01 00:15:53;;;;;;;16.83;13.00;;;5.80;99.90;;;;;;5011134;28;20038;-72
2022/05/01 00:18:19;;;;;;;19.30;13.85;;;5.80;99.90;;;;;;5012346;28;20076;-72
2022/05/01 00:20:46;;;;;;;23.38;15.07;;;5.70;99.90;;;;;;5011804;28;20446;-72
2022/05/01 00:23:11;;;;;;;23.63;14.95;;;5.80;99.90;;;;;;5011325;28;20058;-72
2022/05/01 00:25:41;;;;;;;26.77;15.82;;;5.70;99.90;;;;;;5012182;28;20080;-72
2022/05/01 00:28:07;;;;;;;37.15;19.63;;;5.80;99.90;;;;;;5011161;28;20037;-72
2022/05/01 00:30:33;;;;;;;26.48;16.15;;;5.80;99.90;;;;;;5012257;28;20064;-72
2022/05/01 00:38:27;;;;;;;24.75;16.70;;;5.90;99.90;;;;;;5012131;28;20512;-72
2022/05/01 00:40:54;;;;;;;27.80;18.02;;;5.90;99.90;;;;;;5011735;28;20022;-72
2022/05/01 00:43:20;;;;;;;24.67;17.02;;;6.10;99.90;;;;;;5011239;28;20030;-72
2022/05/01 00:45:45;;;;;;;21.85;15.13;;;6.00;99.90;;;;;;5012296;28;20165;-72
2022/05/01 00:48:14;;;;;;;25.67;16.60;;;6.00;99.90;;;;;;5011846;28;20105;-71
2022/05/01 00:50:41;;;;;;;24.75;15.73;;;5.90;99.90;;;;;;5011179;28;20022;-71
2022/05/01 00:53:08;;;;;;;22.73;16.38;;;5.90;99.90;;;;;;5011627;28;20025;-72
2022/05/01 00:55:34;;;;;;;19.55;14.82;;;5.90;99.90;;;;;;5011712;28;20057;-72
2022/05/01 00:58:01;;;;;;;21.23;14.90;;;5.80;99.90;;;;;;5010867;28;20026;-72
2022/05/01 01:00:30;;;;;;;21.70;15.60;;;5.80;99.90;;;;;;5012129;28;20149;-72
2022/05/01 01:02:55;;;;;;;23.60;15.70;;;5.70;99.90;;;;;;5011501;28;20525;-72
2022/05/01 01:05:21;;;;;;;22.08;15.20;;;5.60;99.90;;;;;;5011532;28;20029;-73
2022/05/01 01:07:47;;;;;;;26.00;16.38;;;5.70;99.90;;;;;;5015376;28;20474;-73
2022/05/01 01:10:13;;;;;;;19.83;14.35;;;5.60;99.90;;;;;;5015230;28;20500;-73
2022/05/01 01:12:54;;;;;;;18.88;14.07;;;5.50;99.90;;;;;;5014836;28;20539;-72
2022/05/01 01:15:22;;;;;;;19.33;14.38;;;5.50;99.90;;;;;;5015452;28;20034;-73
2022/05/01 01:17:52;;;;;;;16.17;13.13;;;5.50;99.90;;;;;;5014391;28;20120;-72
2022/05/01 01:20:18;;;;;;;20.97;14.17;;;5.40;99.90;;;;;;5015374;28;20442;-73
2022/05/01 01:22:48;;;;;;;19.80;13.60;;;5.50;99.90;;;;;;5015065;28;20034;-72
2022/05/01 01:25:15;;;;;;;19.50;14.98;;;5.40;99.90;;;;;;5014513;28;20080;-72
2022/05/01 01:27:41;;;;;;;17.58;13.77;;;5.40;99.90;;;;;;5015243;28;20099;-72
2022/05/01 01:32:53;;;;;;;21.38;15.60;;;5.30;99.90;;;;;;5014354;28;20040;-73
2022/05/01 01:35:23;;;;;;;21.52;16.27;;;5.20;99.90;;;;;;5015253;28;20041;-73
2022/05/01 01:37:50;;;;;;;20.67;15.18;;;5.30;99.90;;;;;;5014640;28;20042;-71
2022/05/01 01:40:29;;;;;;;23.30;15.40;;;5.20;99.90;;;;;;5014190;28;20042;-73
2022/05/01 01:42:57;;;;;;;26.75;16.58;;;5.20;99.90;;;;;;5014522;28;20034;-72
2022/05/01 01:45:28;;;;;;;21.33;14.77;;;5.20;99.90;;;;;;5014566;28;20056;-71
2022/05/01 01:47:55;;;;;;;19.98;13.60;;;5.20;99.90;;;;;;5014138;28;20026;-72
2022/05/01 01:50:24;;;;;;;18.45;14.07;;;5.20;99.90;;;;;;5014778;28;20080;-71
2022/05/01 01:52:50;;;;;;;15.27;12.77;;;5.20;99.90;;;;;;5013707;28;20028;-71
2022/05/01 01:55:19;;;;;;;16.23;12.75;;;5.20;99.90;;;;;;5014365;28;20393;-72
2022/05/01 01:57:46;;;;;;;15.88;12.45;;;5.10;99.90;;;;;;5014428;28;20050;-72
2022/05/01 02:00:13;;;;;;;19.55;12.95;;;5.10;99.90;;;;;;5013378;28;20449;-71
2022/05/01 02:02:38;;;;;;;17.70;12.68;;;5.10;99.90;;;;;;5014202;28;20037;-72
2022/05/01 02:05:08;;;;;;;18.20;12.93;;;5.10;99.90;;;;;;5014132;28;20026;-72
2022/05/01 02:07:33;;;;;;;20.42;15.07;;;5.00;99.90;;;;;;5013402;28;20418;-72
2022/05/01 02:10:00;;;;;;;14.85;12.10;;;5.00;99.90;;;;;;5014066;28;20036;-72
2022/05/01 02:12:26;;;;;;;20.88;14.15;;;5.00;99.90;;;;;;5014205;28;20034;-72
2022/05/01 02:14:52;;;;;;;21.38;14.52;;;5.00;99.90;;;;;;5013052;28;20190;-72
2022/05/01 02:17:18;;;;;;;21.77;14.75;;;4.90;99.90;;;;;;5013886;28;20088;-72
2022/05/01 02:19:44;;;;;;;20.17;14.52;;;5.00;99.90;;;;;;5014267;28;20033;-72
2022/05/01 02:22:09;;;;;;;23.67;15.20;;;5.00;99.90;;;;;;5012752;28;20087;-72
2022/05/01 02:24:35;;;;;;;19.65;14.15;;;5.00;99.90;;;;;;5014038;28;20022;-72
2022/05/01 02:27:01;;;;;;;18.75;12.93;;;5.00;99.90;;;;;;5013533;28;20397;-72
2022/05/01 02:29:27;;;;;;;13.02;10.82;;;5.00;99.90;;;;;;5013126;28;20140;-71
2022/05/01 02:31:53;;;;;;;10.18;8.70;;;5.00;99.90;;;;;;5013845;28;20030;-72
2022/05/01 02:34:22;;;;;;;9.52;8.25;;;4.90;99.90;;;;;;5013861;28;20080;-72
2022/05/01 02:36:56;;;;;;;9.02;7.82;;;4.90;99.90;;;;;;5012890;28;20452;-71
2022/05/01 02:39:24;;;;;;;7.25;6.55;;;4.90;99.90;;;;;;5013873;28;20072;-72
2022/05/01 02:41:50;;;;;;;12.02;9.80;;;4.90;99.90;;;;;;5012578;28;20478;-72
2022/05/01 02:44:16;;;;;;;17.88;12.02;;;4.80;99.90;;;;;;5013502;28;20076;-72
2022/05/01 02:46:42;;;;;;;12.07;10.02;;;4.80;99.90;;;;;;5013617;28;20026;-72
2022/05/01 02:49:08;;;;;;;10.43;9.15;;;4.80;99.90;;;;;;5012596;28;20113;-71
2022/05/01 02:51:36;;;;;;;11.00;8.82;;;4.80;99.90;;;;;;5013488;28;20469;-72
2022/05/01 02:54:04;;;;;;;9.77;7.72;;;4.80;99.90;;;;;;5013183;28;20034;-72
2022/05/01 02:56:30;;;;;;;8.15;6.72;;;4.70;99.90;;;;;;5012433;28;20062;-72
2022/05/01 02:58:57;;;;;;;7.75;6.95;;;4.60;99.90;;;;;;5012859;28;20030;-72
2022/05/01 03:01:23;;;;;;;13.50;9.30;;;4.60;99.90;;;;;;5013316;28;20540;-72
2022/05/01 03:03:49;;;;;;;14.63;10.43;;;4.50;99.90;;;;;;5012599;28;20057;-72
2022/05/01 03:06:14;;;;;;;17.17;9.43;;;4.50;99.90;;;;;;5013243;28;20044;-72
2022/05/01 03:08:40;;;;;;;14.43;9.55;;;4.50;99.90;;;;;;5013198;28;20080;-71
2022/05/01 03:11:05;;;;;;;17.88;11.75;;;4.40;99.90;;;;;;5011969;28;20072;-72
2022/05/01 03:13:31;;;;;;;19.10;12.95;;;4.40;99.90;;;;;;5013352;28;20441;-71
2022/05/01 03:15:56;;;;;;;21.15;13.15;;;4.40;99.90;;;;;;5012923;28;20038;-72
2022/05/01 03:23:50;;;;;;;12.82;10.18;;;4.30;99.90;;;;;;5012742;28;20036;-72
2022/05/01 03:26:19;;;;;;;18.15;12.48;;;4.30;99.90;;;;;;5012344;28;20021;-72
2022/05/01 03:28:48;;;;;;;15.00;11.73;;;4.40;99.90;;;;;;5012538;28;20024;-72
2022/05/01 03:31:15;;;;;;;15.32;10.25;;;4.30;99.90;;;;;;5012140;28;20487;-72
2022/05/01 03:33:42;;;;;;;11.07;9.30;;;4.30;99.90;;;;;;5012704;28;20026;-72
2022/05/01 03:36:09;;;;;;;17.38;11.77;;;4.40;99.90;;;;;;5012384;28;20105;-72
2022/05/01 03:38:40;;;;;;;17.50;11.43;;;4.30;99.90;;;;;;5012270;28;20044;-72
2022/05/01 03:41:07;;;;;;;15.18;10.85;;;4.30;99.90;;;;;;5012487;28;20030;-72
2022/05/01 03:43:33;;;;;;;13.30;10.25;;;4.40;99.90;;;;;;5012775;28;20108;-72
2022/05/01 03:46:00;;;;;;;16.38;10.98;;;4.30;99.90;;;;;;5011553;28;20030;-73
2022/05/01 03:48:26;;;;;;;18.85;10.50;;;4.30;99.90;;;;;;5012592;28;20478;-72
2022/05/01 03:50:52;;;;;;;15.30;11.15;;;4.30;99.90;;;;;;5012226;28;20470;-72
2022/05/01 03:53:18;;;;;;;11.27;9.30;;;4.30;99.90;;;;;;5011818;28;20080;-72
2022/05/01 03:55:47;;;;;;;9.00;7.82;;;4.30;99.90;;;;;;5012342;28;20057;-72
2022/05/01 03:58:13;;;;;;;9.68;8.32;;;4.30;99.90;;;;;;5012448;28;20482;-72
2022/05/01 04:00:39;;;;;;;9.23;7.57;;;4.30;99.90;;;;;;5012033;28;20022;-72
2022/05/01 04:03:05;;;;;;;8.63;7.35;;;4.20;99.90;;;;;;5012018;28;20022;-72
2022/05/01 04:05:33;;;;;;;10.48;9.07;;;4.20;99.90;;;;;;5012154;28;20030;-72
2022/05/01 04:07:59;;;;;;;8.75;7.30;;;4.10;99.90;;;;;;5011269;28;20033;-73
2022/05/01 04:10:27;;;;;;;9.15;7.75;;;4.20;99.90;;;;;;5012233;28;20029;-72
2022/05/01 04:12:53;;;;;;;8.25;6.63;;;4.10;99.90;;;;;;5011728;28;20029;-72
2022/05/01 04:15:18;;;;;;;8.13;7.32;;;4.10;99.90;;;;;;5011444;28;20482;-71
2022/05/01 04:17:44;;;;;;;10.52;7.75;;;4.10;99.90;;;;;;5012067;28;20073;-72
2022/05/01 04:20:13;;;;;;;11.38;7.40;;;4.10;99.90;;;;;;5011288;28;20026;-72
2022/05/01 04:22:43;;;;;;;10.05;7.60;;;4.10;99.90;;;;;;5012001;28;20484;-72
2022/05/01 04:25:26;;;;;;;9.88;7.50;;;4.10;99.90;;;;;;5012091;28;20026;-72
2022/05/01 04:28:00;;;;;;;8.60;7.70;;;4.10;99.90;;;;;;5011091;28;20022;-71
2022/05/01 04:30:26;;;;;;;12.52;8.43;;;4.10;99.90;;;;;;5011965;28;20030;-71
2022/05/01 04:33:06;;;;;;;8.50;7.63;;;4.10;99.90;;;;;;5011924;28;20026;-72
2022/05/01 04:35:40;;;;;;;11.10;8.95;;;4.10;99.90;;;;;;5011303;28;20049;-72
2022/05/01 04:38:13;;;;;;;9.02;7.63;;;4.20;99.90;;;;;;5011822;28;20052;-72
2022/05/01 04:40:47;;;;;;;8.25;6.57;;;4.20;99.90;;;;;;5012413;28;20037;-73
2022/05/01 04:43:18;;;;;;;7.70;6.93;;;4.20;99.90;;;;;;5015025;28;20049;-72
2022/05/01 04:45:46;;;;;;;7.15;5.85;;;4.20;99.90;;;;;;5016112;28;20107;-72
2022/05/01 04:48:13;;;;;;;4.85;4.25;;;4.30;99.90;;;;;;5015659;28;20030;-72
2022/05/01 04:50:40;;;;;;;6.85;5.63;;;4.20;99.90;;;;;;5014904;28;20021;-72
2022/05/01 04:53:09;;;;;;;8.07;5.50;;;4.20;99.90;;;;;;5015462;28;20026;-73
2022/05/01 04:55:36;;;;;;;6.97;6.00;;;4.20;99.90;;;;;;5014671;28;20049;-73
2022/05/01 04:58:03;;;;;;;6.82;5.70;;;4.30;99.90;;;;;;5015278;28;20037;-72
2022/05/01 05:00:29;;;;;;;6.75;5.82;;;4.30;99.90;;;;;;5015619;28;20022;-73
2022/05/01 05:02:56;;;;;;;29.00;17.60;;;4.40;99.90;;;;;;5014624;28;20033;-72
2022/05/01 05:05:22;;;;;;;32.40;20.58;;;4.60;99.90;;;;;;5015391;28;20036;-72
2022/05/01 05:07:48;;;;;;;34.33;21.15;;;4.90;99.90;;;;;;5015002;28;20109;-74
2022/05/01 05:10:16;;;;;;;22.65;15.55;;;5.00;99.90;;;;;;5014631;28;20363;-72
2022/05/01 05:12:43;;;;;;;11.30;9.75;;;5.10;99.90;;;;;;5015388;28;20026;-72
2022/05/01 05:15:10;;;;;;;7.85;7.10;;;5.20;99.90;;;;;;5014784;28;20076;-72
2022/05/01 05:17:37;;;;;;;9.23;8.18;;;5.20;99.90;;;;;;5014756;28;20470;-72
2022/05/01 05:20:04;;;;;;;9.70;7.57;;;5.20;99.90;;;;;;5013530;28;20478;-72
2022/05/01 05:22:30;;;;;;;9.43;8.45;;;5.20;99.90;;;;;;5014876;28;20117;-71
2022/05/01 05:24:55;;;;;;;28.52;9.55;;;5.30;99.90;;;;;;5014211;28;20105;-71
2022/05/01 05:27:25;;;;;;;13.85;11.05;;;5.30;99.90;;;;;;5015097;28;20461;-72
2022/05/01 05:29:51;;;;;;;32.20;20.02;;;5.40;99.90;;;;;;5014516;28;20486;-72
2022/05/01 05:32:17;;;;;;;23.42;16.42;;;5.60;99.90;;;;;;5014204;28;20057;-73
2022/05/01 05:34:43;;;;;;;30.77;21.13;;;5.70;99.90;;;;;;5014489;28;20520;-72
2022/05/01 05:37:08;;;;;;;28.58;19.20;;;5.80;99.90;;;;;;5014331;28;20100;-72
2022/05/01 05:39:34;;;;;;;34.13;21.02;;;5.90;99.90;;;;;;5014183;28;20374;-72
2022/05/01 05:41:59;;;;;;;36.78;23.50;;;6.00;99.90;;;;;;5014425;28;20037;-72
2022/05/01 05:44:25;;;;;;;37.47;23.98;;;6.20;99.90;;;;;;5014325;28;20029;-72
2022/05/01 05:46:50;;;;;;;36.67;23.45;;;6.30;99.90;;;;;;5013259;28;20029;-72
2022/05/01 05:49:16;;;;;;;33.55;22.58;;;6.40;99.90;;;;;;5014477;28;20029;-73
2022/05/01 05:51:42;;;;;;;31.77;22.42;;;6.50;99.90;;;;;;5013241;28;20022;-72
2022/05/01 05:54:07;;;;;;;31.30;21.90;;;6.60;99.90;;;;;;5014353;28;20030;-72
2022/05/01 05:56:33;;;;;;;29.48;20.08;;;6.70;99.90;;;;;;5014219;28;20053;-72
2022/05/01 05:58:59;;;;;;;29.10;20.35;;;6.70;99.90;;;;;;5013405;28;20029;-73
2022/05/01 06:01:25;;;;;;;33.50;22.08;;;6.80;99.90;;;;;;5014111;28;20026;-73
2022/05/01 06:03:50;;;;;;;28.95;20.05;;;6.90;99.90;;;;;;5013885;28;20109;-73
2022/05/01 06:06:17;;;;;;;29.10;20.13;;;6.90;99.90;;;;;;5013461;28;20022;-72
2022/05/01 06:08:43;;;;;;;27.55;19.20;;;7.00;99.90;;;;;;5014203;28;20468;-73
2022/05/01 06:11:09;;;;;;;28.05;19.88;;;7.00;99.90;;;;;;5013987;28;20061;-73
2022/05/01 06:13:35;;;;;;;27.98;18.80;;;7.10;99.90;;;;;;5013542;28;20030;-72
2022/05/01 06:16:00;;;;;;;32.00;20.10;;;7.20;99.90;;;;;;5013625;28;20033;-72
2022/05/01 06:18:26;;;;;;;26.58;19.02;;;7.30;99.90;;;;;;5013947;28;20097;-72
2022/05/01 06:20:53;;;;;;;28.63;19.02;;;7.40;99.90;;;;;;5013042;28;20032;-72
2022/05/01 06:23:19;;;;;;;28.58;19.92;;;7.50;99.90;;;;;;5014605;28;20092;-72
2022/05/01 06:25:46;;;;;;;26.63;17.38;;;7.60;99.90;;;;;;5014342;28;20062;-72
2022/05/01 06:28:13;;;;;;;26.23;19.80;;;7.70;99.90;;;;;;5012945;28;20390;-73
2022/05/01 06:30:43;;;;;;;28.08;18.67;;;7.80;99.90;;;;;;5013870;28;20097;-72
2022/05/01 06:33:14;;;;;;;24.60;17.48;;;8.00;99.90;;;;;;5013523;28;20117;-72
2022/05/01 06:35:40;;;;;;;23.05;17.58;;;8.00;99.90;;;;;;5013088;28;20106;-72
2022/05/01 06:38:07;;;;;;;23.63;16.83;;;8.10;99.90;;;;;;5013130;28;20108;-72
2022/05/01 06:40:33;;;;;;;25.73;16.83;;;8.30;99.90;;;;;;5013763;28;20041;-72
2022/05/01 06:42:59;;;;;;;26.33;16.23;;;8.40;99.90;;;;;;5012637;28;20033;-73
2022/05/01 06:45:25;;;;;;;20.85;16.15;;;8.50;99.90;;;;;;5013469;28;20030;-72
2022/05/01 06:47:50;;;;;;;21.35;15.45;;;8.60;99.90;;;;;;5012839;28;20026;-73
2022/05/01 06:50:16;;;;;;;21.63;16.20;;;8.70;99.90;;;;;;5013638;28;20056;-73
2022/05/01 06:52:42;;;;;;;21.65;15.93;;;8.80;99.90;;;;;;5013495;28;20030;-73
2022/05/01 06:55:09;;;;;;;22.90;15.45;;;8.90;99.90;;;;;;5012250;28;20406;-73
2022/05/01 06:57:34;;;;;;;20.20;15.60;;;9.00;99.90;;;;;;5013276;28;20109;-72
2022/05/01 07:00:00;;;;;;;23.08;15.35;;;9.10;99.90;;;;;;5012847;28;20167;-72
2022/05/01 07:02:26;;;;;;;18.73;14.30;;;9.20;99.90;;;;;;5012443;28;20041;-72
2022/05/01 07:04:51;;;;;;;23.83;15.23;;;9.20;99.90;;;;;;5012212;28;20025;-72
2022/05/01 07:07:17;;;;;;;18.88;16.00;;;9.30;99.90;;;;;;5012997;28;20025;-72
2022/05/01 07:09:42;;;;;;;21.55;14.00;;;9.30;99.90;;;;;;5012395;28;20018;-72
2022/05/01 07:12:11;;;;;;;25.38;15.10;;;9.40;99.90;;;;;;5012660;28;20026;-73
2022/05/01 07:14:38;;;;;;;22.40;15.80;;;9.50;99.90;;;;;;5013024;28;20057;-73
2022/05/01 07:17:04;;;;;;;17.52;14.15;;;9.60;99.90;;;;;;5011795;28;20547;-73
2022/05/01 07:19:29;;;;;;;22.67;15.55;;;9.60;99.90;;;;;;5012990;28;20065;-73
2022/05/01 07:21:55;;;;;;;20.00;14.05;;;9.80;99.90;;;;;;5012764;28;20021;-72
2022/05/01 07:24:20;;;;;;;21.02;14.70;;;9.80;99.90;;;;;;5012207;28;20472;-72
2022/05/01 07:26:46;;;;;;;21.60;14.23;;;9.90;99.90;;;;;;5012896;28;20503;-73
2022/05/01 07:29:12;;;;;;;19.55;15.52;;;10.00;99.90;;;;;;5012384;28;20030;-73
2022/05/01 07:31:37;;;;;;;20.90;14.73;;;10.10;99.90;;;;;;5011972;28;20394;-73
2022/05/01 07:34:03;;;;;;;14.85;13.00;;;10.30;99.90;;;;;;5012557;28;20114;-73
2022/05/01 07:36:28;;;;;;;20.02;14.40;;;10.40;99.90;;;;;;5012903;28;20029;-73
2022/05/01 07:38:54;;;;;;;21.75;14.85;;;10.60;99.90;;;;;;5011705;28;20104;-73
2022/05/01 07:41:20;;;;;;;20.10;13.35;;;10.80;99.90;;;;;;5012634;28;20106;-73
2022/05/01 07:43:46;;;;;;;19.25;14.20;;;10.90;99.90;;;;;;5012721;28;20105;-73
2022/05/01 07:46:12;;;;;;;21.30;12.55;;;10.90;99.90;;;;;;5011492;28;20101;-73
2022/05/01 07:48:37;;;;;;;15.65;12.07;;;11.00;99.90;;;;;;5012731;28;20033;-73
2022/05/01 07:51:03;;;;;;;14.93;11.20;;;11.10;99.90;;;;;;5012404;28;20378;-72
2022/05/01 07:53:28;;;;;;;18.20;12.02;;;11.10;99.90;;;;;;5011834;28;20032;-73
2022/05/01 07:55:56;;;;;;;11.27;9.27;;;11.10;99.90;;;;;;5012022;28;20157;-73
2022/05/01 07:58:22;;;;;;;11.48;8.48;;;11.10;99.90;;;;;;5011615;28;20494;-73
2022/05/01 08:00:48;;;;;;;15.10;10.85;;;11.10;99.90;;;;;;5012096;28;20037;-71
2022/05/01 08:05:58;;;;;;;15.55;10.30;;;11.00;99.90;;;;;;5011634;28;20029;-74
2022/05/01 08:08:33;;;;;;;15.25;10.60;;;11.00;99.90;;;;;;5012358;28;20042;-73
2022/05/01 08:11:03;;;;;;;13.55;9.80;;;10.90;99.90;;;;;;5012109;28;20022;-73
2022/05/01 08:13:28;;;;;;;11.02;9.93;;;10.80;99.90;;;;;;5011837;28;20042;-73
2022/05/01 08:15:54;;;;;;;14.13;10.00;;;10.80;99.90;;;;;;5014583;28;20148;-73
2022/05/01 08:21:10;;;;;;;13.75;10.52;;;10.80;99.90;;;;;;5015536;28;20037;-73
2022/05/01 08:23:37;;;;;;;14.68;10.63;;;10.80;99.90;;;;;;5016693;28;20461;-72
2022/05/01 08:26:04;;;;;;;16.52;10.38;;;10.80;99.90;;;;;;5015743;28;20046;-73
2022/05/01 08:28:31;;;;;;;11.85;9.82;;;10.80;99.90;;;;;;5015662;28;20105;-72
2022/05/01 08:30:56;;;;;;;10.43;9.38;;;10.80;99.90;;;;;;5015985;28;20029;-73
2022/05/01 08:33:22;;;;;;;12.43;9.60;;;10.90;99.90;;;;;;5015651;28;20022;-73
2022/05/01 08:35:48;;;;;;;15.55;10.25;;;10.90;99.90;;;;;;5015938;28;20033;-72
2022/05/01 08:38:13;;;;;;;15.27;9.80;;;10.90;99.90;;;;;;5016265;28;20029;-72
2022/05/01 08:40:40;;;;;;;10.73;9.73;;;10.90;99.90;;;;;;5015586;28;20017;-73
2022/05/01 08:43:05;;;;;;;12.00;10.27;;;10.90;99.90;;;;;;5015698;28;20026;-73
2022/05/01 08:46:01;;;;;;;12.10;9.90;;;11.00;99.90;;;;;;5016091;28;20026;-72
2022/05/01 08:49:05;;;;;;;11.63;9.27;;;11.00;99.90;;;;;;5013832;28;20048;-73
2022/05/01 08:51:41;;;;;;;12.82;11.02;;;11.20;99.90;;;;;;5013341;28;20421;-73
2022/05/01 08:54:09;;;;;;;11.85;10.05;;;11.40;99.90;;;;;;5015153;28;20038;-72
2022/05/01 08:56:36;;;;;;;10.73;8.55;;;11.50;99.90;;;;;;5014583;28;20137;-73
2022/05/01 08:59:04;;;;;;;14.27;9.80;;;11.70;99.90;;;;;;5015371;28;20490;-73
2022/05/01 09:01:34;;;;;;;11.30;9.52;;;11.80;99.90;;;;;;5015102;28;20053;-72
2022/05/01 09:04:00;;;;;;;17.73;8.98;;;11.90;99.90;;;;;;5015349;28;20073;-73
2022/05/01 09:06:26;;;;;;;12.25;10.40;;;12.00;99.90;;;;;;5015441;28;20038;-73
2022/05/01 09:08:52;;;;;;;16.20;8.40;;;12.10;99.90;;;;;;5014279;28;20615;-73
2022/05/01 09:14:06;;;;;;;6.88;6.25;;;12.30;99.90;;;;;;5014971;28;20037;-73
2022/05/01 09:16:36;;;;;;;9.93;7.28;;;12.50;99.90;;;;;;5014642;28;20127;-73
2022/05/01 09:19:02;;;;;;;9.95;8.18;;;12.60;99.90;;;;;;5015042;28;20110;-73
2022/05/01 09:21:48;;;;;;;7.03;6.32;;;12.70;99.90;;;;;;5015133;28;20030;-73
2022/05/01 09:24:13;;;;;;;6.28;5.45;;;12.80;99.90;;;;;;5014180;28;20129;-73
2022/05/01 09:26:39;;;;;;;7.95;5.95;;;12.80;99.90;;;;;;5014428;28;20134;-73
2022/05/01 09:29:05;;;;;;;8.75;6.18;;;12.90;99.90;;;;;;5014743;28;20064;-73
2022/05/01 09:31:44;;;;;;;6.68;5.88;;;13.00;99.90;;;;;;5014366;28;20032;-73
2022/05/01 09:34:23;;;;;;;6.30;5.68;;;13.10;99.90;;;;;;5014618;28;20061;-73
2022/05/01 09:36:49;;;;;;;8.27;7.32;;;13.20;99.90;;;;;;5013732;28;20065;-72
2022/05/01 09:39:22;;;;;;;7.18;6.57;;;13.30;99.90;;;;;;5014961;28;20057;-72
2022/05/01 09:41:49;;;;;;;6.57;5.97;;;13.30;99.90;;;;;;5014456;28;20050;-72
2022/05/01 09:44:16;;;;;;;7.55;6.13;;;13.40;99.90;;;;;;5014060;28;20022;-72
2022/05/01 09:46:47;;;;;;;7.75;7.05;;;13.40;99.90;;;;;;5014623;28;20118;-72
2022/05/01 09:49:13;;;;;;;;;;;13.40;99.90;;;;;;5014946;28;20026;-72
2022/05/01 09:51:43;;;;;;;5.90;4.90;;;13.40;99.90;;;;;;5013936;28;20273;-73
2022/05/01 09:54:09;;;;;;;8.35;6.53;;;13.60;99.90;;;;;;5014330;28;20034;-73
2022/05/01 09:56:48;;;;;;;7.38;6.22;;;13.80;99.90;;;;;;5014226;28;20084;-73
2022/05/01 09:59:15;;;;;;;6.25;5.65;;;13.90;99.90;;;;;;5013748;28;20414;-73
2022/05/01 10:01:53;;;;;;;6.63;5.78;;;14.10;98.90;;;;;;5014248;28;20128;-73
2022/05/01 10:04:21;;;;;;;6.32;5.72;;;14.30;98.30;;;;;;5014387;28;20018;-73
2022/05/01 10:06:47;;;;;;;9.13;7.18;;;14.30;98.10;;;;;;5013617;28;20033;-73
2022/05/01 10:09:14;;;;;;;9.75;6.93;;;14.50;98.70;;;;;;5014287;28;20382;-73
2022/05/01 10:11:42;;;;;;;7.72;7.03;;;14.40;97.90;;;;;;5014746;28;20037;-73
2022/05/01 10:14:08;;;;;;;9.60;7.07;;;14.30;98.50;;;;;;5013098;28;20042;-73
2022/05/01 10:16:34;;;;;;;8.18;7.45;;;14.20;98.10;;;;;;5014153;28;20030;-73
2022/05/01 10:18:59;;;;;;;7.60;6.95;;;14.00;98.30;;;;;;5013246;28;20037;-73
2022/05/01 10:21:28;;;;;;;7.53;6.70;;;14.10;98.00;;;;;;5013895;28;20370;-73
2022/05/01 10:23:54;;;;;;;7.57;6.38;;;14.20;97.60;;;;;;5013675;28;20037;-72
2022/05/01 10:26:30;;;;;;;9.57;6.85;;;14.20;97.40;;;;;;5013213;28;20115;-72
2022/05/01 10:29:28;;;;;;;7.30;6.53;;;14.00;97.50;;;;;;5012293;28;20071;-73
2022/05/01 10:35:06;;;;;;;7.35;6.05;;;14.40;97.60;;;;;;5013072;28;20029;-73
2022/05/01 10:37:55;;;;;;;6.30;5.70;;;14.50;97.20;;;;;;5013788;28;20033;-73
2022/05/01 10:40:21;;;;;;;6.43;5.82;;;14.60;96.50;;;;;;5012479;28;20030;-73
2022/05/01 10:42:50;;;;;;;8.20;5.70;;;14.60;96.80;;;;;;5013608;28;20474;-74
2022/05/01 10:45:22;;;;;;;7.07;6.10;;;14.90;96.20;;;;;;5013175;28;20482;-74
2022/05/01 10:47:52;;;;;;;7.65;6.10;;;15.00;95.00;;;;;;5012480;28;20037;-73
2022/05/01 10:50:20;;;;;;;6.70;6.10;;;14.80;95.50;;;;;;5013419;28;20026;-73
2022/05/01 10:53:06;;;;;;;8.88;5.93;;;14.90;95.50;;;;;;5013494;28;20100;-73
2022/05/01 10:55:51;;;;;;;6.15;5.20;;;14.90;94.80;;;;;;5012438;28;20042;-73
2022/05/01 10:58:32;;;;;;;8.05;5.72;;;14.90;94.50;;;;;;5013541;28;20034;-73
2022/05/01 11:00:57;;;;;;;;;;;14.90;94.20;;;;;;5013826;28;20045;-73
2022/05/01 11:03:26;;;;;;;5.90;5.30;;;14.80;95.20;;;;;;5012510;28;19951;-72
2022/05/01 11:05:55;;;;;;;8.88;5.38;;;14.80;94.80;;;;;;5013012;28;20536;-73
2022/05/01 11:08:27;;;;;;;5.90;4.93;;;14.80;94.30;;;;;;5012620;28;20033;-73
2022/05/01 11:10:54;;;;;;;5.75;4.38;;;14.90;94.80;;;;;;5013475;28;20026;-73
2022/05/01 11:13:23;;;;;;;5.50;5.07;;;15.00;94.90;;;;;;5012977;28;20397;-74
2022/05/01 11:15:50;;;;;;;5.43;4.88;;;15.30;94.20;;;;;;5011959;28;20500;-72
2022/05/01 11:18:26;;;;;;;5.28;4.78;;;15.40;93.60;;;;;;5012955;28;20038;-73
2022/05/01 11:20:51;;;;;;;6.47;5.75;;;15.40;93.50;;;;;;5012590;28;20045;-73
2022/05/01 11:23:31;;;;;;;5.45;4.65;;;15.40;93.70;;;;;;5012255;28;20026;-73
2022/05/01 11:26:08;;;;;;;4.88;4.47;;;15.30;93.50;;;;;;5012609;28;20080;-73
2022/05/01 11:29:02;;;;;;;5.10;4.60;;;15.50;92.40;;;;;;5012644;28;20189;-74
2022/05/01 11:31:44;;;;;;;4.80;4.38;;;15.50;92.10;;;;;;5011789;28;20034;-72
2022/05/01 11:34:16;;;;;;;4.80;4.22;;;15.50;92.80;;;;;;5012517;28;20386;-73
2022/05/01 11:36:57;;;;;;;3.65;3.35;;;15.60;92.70;;;;;;5011879;28;20121;-72
2022/05/01 11:39:45;;;;;;;4.97;4.47;;;15.70;92.80;;;;;;5012539;28;20030;-72
2022/05/01 11:42:25;;;;;;;4.75;4.22;;;15.70;92.40;;;;;;5012094;28;20022;-72
2022/05/01 11:44:53;;;;;;;4.75;4.35;;;15.70;92.10;;;;;;5011702;28;20036;-72
2022/05/01 11:47:19;;;;;;;7.00;4.38;;;15.60;91.80;;;;;;5012490;28;20104;-73
2022/05/01 11:49:48;;;;;;;7.88;4.10;;;15.60;91.10;;;;;;5012067;28;20110;-72
2022/05/01 11:52:14;;;;;;;4.63;4.03;;;15.50;91.20;;;;;;5011732;28;20061;-73
2022/05/01 11:54:44;;;;;;;5.30;4.45;;;15.40;91.90;;;;;;5012605;28;20049;-72
2022/05/01 12:02:39;;;;;;;6.65;4.25;;;15.50;91.50;;;;;;5012580;28;20489;-72
2022/05/01 12:05:08;;;;;;;4.20;3.63;;;15.60;91.60;;;;;;5011645;28;20029;-73
2022/05/01 12:07:33;;;;;;;5.03;4.30;;;15.70;91.20;;;;;;5012233;28;20559;-72
2022/05/01 12:09:59;;;;;;;4.05;3.70;;;15.70;90.50;;;;;;5011886;28;20057;-73
2022/05/01 12:12:29;;;;;;;4.00;3.60;;;15.60;90.30;;;;;;5011431;28;20057;-72
2022/05/01 12:14:54;;;;;;;5.33;4.20;;;15.60;90.50;;;;;;5012008;28;20109;-72
2022/05/01 12:17:23;;;;;;;3.90;3.50;;;15.60;91.10;;;;;;5011964;28;20152;-73
2022/05/01 12:19:50;;;;;;;3.97;3.67;;;15.70;90.20;;;;;;5011194;28;20470;-73
2022/05/01 12:22:19;;;;;;;4.90;4.30;;;15.80;90.50;;;;;;5012066;28;20040;-73
2022/05/01 12:24:46;;;;;;;4.45;4.07;;;16.00;88.80;;;;;;5012156;28;20405;-72
2022/05/01 12:27:13;;;;;;;4.63;4.18;;;16.20;88.90;;;;;;5011125;28;20049;-72
2022/05/01 12:29:46;;;;;;;4.00;3.50;;;16.20;87.60;;;;;;5011910;28;20389;-72
2022/05/01 12:32:13;;;;;;;4.03;3.50;;;16.40;88.70;;;;;;5012042;28;20033;-72
2022/05/01 12:34:55;;;;;;;5.75;3.83;;;16.50;86.90;;;;;;5011409;28;20025;-72
2022/05/01 12:37:24;;;;;;;5.20;4.40;;;16.60;86.50;;;;;;5011828;28;20088;-72
2022/05/01 12:40:10;;;;;;;6.60;3.88;;;16.90;86.80;;;;;;5010950;28;20449;-72
2022/05/01 12:45:41;;;;;;;4.03;3.60;;;17.10;84.60;;;;;;5012186;28;20073;-72
2022/05/01 12:48:13;;;;;;;4.85;4.50;;;17.30;84.70;;;;;;5010973;28;20022;-72
2022/05/01 12:50:40;;;;;;;4.97;4.53;;;17.40;83.00;;;;;;5012071;28;20058;-72
2022/05/01 12:53:31;;;;;;;4.53;4.18;;;17.60;82.10;;;;;;5011845;28;20030;-72
2022/05/01 12:55:59;;;;;;;5.18;4.22;;;17.70;82.50;;;;;;5010656;28;20140;-73
2022/05/01 12:58:35;;;;;;;6.75;4.70;;;17.80;82.80;;;;;;5011767;28;20052;-73
2022/05/01 13:01:04;;;;;;;4.05;3.65;;;18.10;80.70;;;;;;5010816;28;20037;-73
2022/05/01 13:03:38;;;;;;;4.67;4.17;;;18.40;80.40;;;;;;5015131;28;20382;-72
2022/05/01 13:06:07;;;;;;;3.55;3.25;;;18.70;79.80;;;;;;5015275;28;20021;-73
2022/05/01 13:08:41;;;;;;;3.70;3.20;;;19.10;79.00;;;;;;5014588;28;20026;-73
2022/05/01 13:11:24;;;;;;;3.97;3.50;;;19.40;76.90;;;;;;5015066;28;20042;-73
2022/05/01 13:13:57;;;;;;;3.78;3.35;;;19.80;75.40;;;;;;5014923;28;20025;-72
2022/05/01 13:16:31;;;;;;;5.68;3.85;;;19.80;74.10;;;;;;5014209;28;20508;-73
2022/05/01 13:18:59;;;;;;;4.15;3.75;;;19.80;74.10;;;;;;5014835;28;20022;-73
2022/05/01 13:21:27;;;;;;;4.35;3.35;;;19.70;74.30;;;;;;5015088;28;20164;-72
2022/05/01 13:24:30;;;;;;;4.60;3.33;;;19.70;74.60;;;;;;5013944;28;20033;-73